createdAt,value
2023-04-25T00:01:05.996Z,39.64
2023-04-25T00:03:34.291Z,40.07
2023-04-25T00:06:03.448Z,39.76
2023-04-25T00:08:31.450Z,39.73
2023-04-25T00:11:00.828Z,40.12
2023-04-25T00:13:28.758Z,40.02
2023-04-25T00:15:57.426Z,39.88
2023-04-25T00:18:25.601Z,39.93
2023-04-25T00:20:53.599Z,40.26
2023-04-25T00:23:21.618Z,40.26
2023-04-25T00:25:50.101Z,40.34
2023-04-25T00:28:19.444Z,40.34
2023-04-25T00:30:47.819Z,40.45
2023-04-25T00:33:15.726Z,40.33
2023-04-25T00:35:43.796Z,40.44
2023-04-25T00:38:11.795Z,40.44
2023-04-25T00:40:39.797Z,40.20
2023-04-25T00:43:07.841Z,40.22
2023-04-25T00:45:37.263Z,40.18
2023-04-25T00:48:05.680Z,40.30
2023-04-25T00:50:34.112Z,40.39
2023-04-25T00:53:02.152Z,40.40
2023-04-25T00:55:30.150Z,40.31
2023-04-25T00:57:58.061Z,39.94
2023-04-25T01:00:25.983Z,40.21
2023-04-25T01:02:55.611Z,39.93
2023-04-25T01:05:23.768Z,40.36
2023-04-25T01:07:51.793Z,40.35
2023-04-25T01:10:19.793Z,40.30
2023-04-25T01:12:47.814Z,40.05
2023-04-25T01:15:15.841Z,40.28
2023-04-25T01:17:45.296Z,40.36
2023-04-25T01:20:15.023Z,40.23
2023-04-25T01:22:44.420Z,40.33
2023-04-25T01:25:12.472Z,40.65
2023-04-25T01:27:40.641Z,40.31
2023-04-25T01:30:09.713Z,40.68
2023-04-25T01:32:40.156Z,40.52
2023-04-25T01:35:10.282Z,40.53
2023-04-25T01:37:38.653Z,40.52
2023-04-25T01:40:09.233Z,40.54
2023-04-25T01:42:37.575Z,40.69
2023-04-25T01:45:06.067Z,40.71
2023-04-25T01:47:36.151Z,40.56
2023-04-25T01:50:04.349Z,40.62
2023-04-25T01:52:32.327Z,40.93
2023-04-25T01:55:00.470Z,40.79
2023-04-25T01:57:29.777Z,41.12
2023-04-25T01:59:59.210Z,40.89
2023-04-25T02:02:27.339Z,40.51
2023-04-25T02:04:55.684Z,40.75
2023-04-25T02:07:23.748Z,40.82
2023-04-25T02:09:51.785Z,40.42
2023-04-25T02:12:19.704Z,40.76
2023-04-25T02:14:49.202Z,40.61
2023-04-25T02:17:17.185Z,40.37
2023-04-25T02:19:45.907Z,40.51
2023-04-25T02:22:13.893Z,40.44
2023-04-25T02:24:41.902Z,40.52
2023-04-25T02:27:09.903Z,40.78
2023-04-25T02:29:37.991Z,40.47
2023-04-25T02:32:10.253Z,40.56
2023-04-25T02:34:38.596Z,40.80
2023-04-25T02:37:06.562Z,40.98
2023-04-25T02:39:34.492Z,40.72
2023-04-25T02:42:03.734Z,40.76
2023-04-25T02:44:31.661Z,40.69
2023-04-25T02:46:59.709Z,40.62
2023-04-25T02:49:29.141Z,41.21
2023-04-25T02:51:57.166Z,41.11
2023-04-25T02:54:25.102Z,41.05
2023-04-25T02:56:53.049Z,40.96
2023-04-25T02:59:20.942Z,40.92
2023-04-25T03:01:48.988Z,41.03
2023-04-25T03:04:16.943Z,41.18
2023-04-25T03:06:46.280Z,41.45
2023-04-25T03:09:14.258Z,41.18
2023-04-25T03:11:42.260Z,41.22
2023-04-25T03:14:10.266Z,41.07
2023-04-25T03:16:38.358Z,41.22
2023-04-25T03:19:06.483Z,40.82
2023-04-25T03:21:34.592Z,40.91
2023-04-25T03:24:05.153Z,40.75
2023-04-25T03:26:33.196Z,41.06
2023-04-25T03:29:01.196Z,41.18
2023-04-25T03:31:29.342Z,41.27
2023-04-25T03:33:57.399Z,41.21
2023-04-25T03:36:25.459Z,40.82
2023-04-25T03:38:53.397Z,40.85
2023-04-25T03:41:22.793Z,41.13
2023-04-25T03:43:51.025Z,40.90
2023-04-25T03:46:19.218Z,40.94
2023-04-25T03:48:47.304Z,41.24
2023-04-25T03:51:15.280Z,41.25
2023-04-25T03:53:43.327Z,41.29
2023-04-25T03:56:11.709Z,41.27
2023-04-25T03:58:41.056Z,41.25
2023-04-25T04:01:09.423Z,41.13
2023-04-25T04:03:37.674Z,41.02
2023-04-25T04:06:06.677Z,41.20
2023-04-25T04:08:34.794Z,40.97
2023-04-25T04:11:02.840Z,41.20
2023-04-25T04:13:30.981Z,41.35
2023-04-25T04:16:00.414Z,41.14
2023-04-25T04:18:28.561Z,41.35
2023-04-25T04:20:56.867Z,41.16
2023-04-25T04:23:25.089Z,41.42
2023-04-25T04:25:53.756Z,41.41
2023-04-25T04:28:21.800Z,41.15
2023-04-25T04:30:52.129Z,41.49
2023-04-25T04:33:21.683Z,41.50
2023-04-25T04:35:49.678Z,41.60
2023-04-25T04:38:17.631Z,41.53
2023-04-25T04:40:45.601Z,41.10
2023-04-25T04:43:13.511Z,41.12
2023-04-25T04:45:41.522Z,41.13
2023-04-25T04:48:09.777Z,41.05
2023-04-25T04:50:40.040Z,41.18
2023-04-25T04:53:08.167Z,41.49
2023-04-25T04:55:36.295Z,41.28
2023-04-25T04:58:04.393Z,41.34
2023-04-25T05:00:33.152Z,41.51
2023-04-25T05:03:01.451Z,41.51
2023-04-25T05:05:29.563Z,41.39
2023-04-25T05:07:59.329Z,41.25
2023-04-25T05:10:28.558Z,41.45
2023-04-25T05:12:56.605Z,41.69
2023-04-25T05:15:24.621Z,41.55
2023-04-25T05:17:52.690Z,41.76
2023-04-25T05:20:20.787Z,41.62
2023-04-25T05:22:49.578Z,41.41
2023-04-25T05:25:20.448Z,41.59
2023-04-25T05:27:49.516Z,42.22
2023-04-25T05:30:18.761Z,41.92
2023-04-25T05:32:48.003Z,42.12
2023-04-25T05:35:17.385Z,42.04
2023-04-25T05:37:48.189Z,41.68
2023-04-25T05:40:17.619Z,42.08
2023-04-25T05:42:49.716Z,41.88
2023-04-25T05:45:18.658Z,41.82
2023-04-25T05:47:46.643Z,42.14
2023-04-25T05:50:14.656Z,41.98
2023-04-25T05:52:42.586Z,41.90
2023-04-25T05:55:11.299Z,41.86
2023-04-25T05:57:42.334Z,42.20
2023-04-25T06:00:13.635Z,41.96
2023-04-25T06:02:41.986Z,41.70
2023-04-25T06:05:10.800Z,41.75
2023-04-25T06:07:39.113Z,42.17
2023-04-25T06:10:08.601Z,42.14
2023-04-25T06:12:36.612Z,42.08
2023-04-25T06:15:13.250Z,42.17
2023-04-25T06:17:53.618Z,41.78
2023-04-25T06:20:24.206Z,41.98
2023-04-25T06:22:52.660Z,42.48
2023-04-25T06:25:20.960Z,43.26
2023-04-25T06:27:48.869Z,43.65
2023-04-25T06:30:19.411Z,43.94
2023-04-25T06:32:55.182Z,43.77
2023-04-25T06:35:23.276Z,43.27
2023-04-25T06:37:51.308Z,43.29
2023-04-25T06:40:19.584Z,42.74
2023-04-25T06:42:47.568Z,42.62
2023-04-25T06:45:15.617Z,42.38
2023-04-25T06:47:43.993Z,42.62
2023-04-25T06:50:13.599Z,42.30
2023-04-25T06:52:41.863Z,42.57
2023-04-25T06:55:10.743Z,42.49
2023-04-25T06:57:38.676Z,42.47
2023-04-25T07:00:10.507Z,42.12
2023-04-25T07:02:38.715Z,42.07
2023-04-25T07:05:07.478Z,42.15
2023-04-25T07:07:36.864Z,42.24
2023-04-25T07:10:05.319Z,42.27
2023-04-25T07:12:33.272Z,42.29
2023-04-25T07:15:06.851Z,42.15
2023-04-25T07:17:35.861Z,41.96
2023-04-25T07:20:04.816Z,42.14
2023-04-25T07:22:32.816Z,42.21
2023-04-25T07:25:02.204Z,41.85
2023-04-25T07:27:30.135Z,41.86
2023-04-25T07:29:58.355Z,41.69
2023-04-25T07:32:26.370Z,41.83
2023-04-25T07:34:54.581Z,41.57
2023-04-25T07:37:22.640Z,41.70
2023-04-25T07:39:50.615Z,41.86
2023-04-25T07:42:20.059Z,41.60
2023-04-25T07:44:50.878Z,41.80
2023-04-25T07:47:20.266Z,41.61
2023-04-25T07:49:48.966Z,41.94
2023-04-25T07:52:16.989Z,41.60
2023-04-25T07:54:44.992Z,41.84
2023-04-25T07:57:15.096Z,41.58
2023-04-25T07:59:44.498Z,41.53
2023-04-25T08:02:12.550Z,41.55
2023-04-25T08:04:40.731Z,41.61
2023-04-25T08:07:08.961Z,41.53
2023-04-25T08:09:37.792Z,41.31
2023-04-25T08:12:06.195Z,41.52
2023-04-25T08:14:37.107Z,41.12
2023-04-25T08:17:06.688Z,41.34
2023-04-25T08:19:34.704Z,41.26
2023-04-25T08:22:02.685Z,41.03
2023-04-25T08:24:30.646Z,41.29
2023-04-25T08:26:59.947Z,41.03
2023-04-25T08:29:29.483Z,41.17
2023-04-25T08:31:57.830Z,41.26
2023-04-25T08:34:27.610Z,40.90
2023-04-25T08:36:55.630Z,40.83
2023-04-25T08:39:23.739Z,40.85
2023-04-25T08:41:51.732Z,40.87
2023-04-25T08:44:19.696Z,40.98
2023-04-25T08:46:50.741Z,40.74
2023-04-25T08:49:19.256Z,40.67
2023-04-25T08:51:48.936Z,40.84
2023-04-25T08:54:30.222Z,40.89
2023-04-25T08:57:05.024Z,40.86
2023-04-25T08:59:37.852Z,40.70
2023-04-25T09:02:07.146Z,40.64
2023-04-25T09:04:35.243Z,40.29
2023-04-25T09:07:04.692Z,40.59
2023-04-25T09:09:32.813Z,40.32
2023-04-25T09:12:01.189Z,40.18
2023-04-25T09:14:29.201Z,40.52
2023-04-25T09:17:01.517Z,40.21
2023-04-25T09:22:02.179Z,39.99
2023-04-25T09:24:35.481Z,40.23
2023-04-25T09:27:05.848Z,40.13
2023-04-25T09:29:34.267Z,39.92
2023-04-25T09:32:17.293Z,40.04
2023-04-25T09:34:45.927Z,39.93
2023-04-25T09:37:14.156Z,39.83
2023-04-25T09:39:43.581Z,39.77
2023-04-25T09:42:11.576Z,39.76
2023-04-25T09:44:39.830Z,39.61
2023-04-25T09:47:10.329Z,39.50
2023-04-25T09:49:41.622Z,39.50
2023-04-25T09:52:09.668Z,39.55
2023-04-25T09:54:37.701Z,39.30
2023-04-25T09:57:10.623Z,39.43
2023-04-25T09:59:39.010Z,39.28
2023-04-25T10:02:07.189Z,38.93
2023-04-25T10:04:35.596Z,38.90
2023-04-25T10:07:03.827Z,38.98
2023-04-25T10:09:32.970Z,39.08
2023-04-25T10:12:01.035Z,38.80
2023-04-25T10:14:30.486Z,38.80
2023-04-25T10:16:58.518Z,38.62
2023-04-25T10:19:26.794Z,38.96
2023-04-25T10:21:57.970Z,38.77
2023-04-25T10:24:26.062Z,38.70
2023-04-25T10:26:54.087Z,38.82
2023-04-25T10:29:25.765Z,38.58
2023-04-25T10:31:55.202Z,38.46
2023-04-25T10:34:27.149Z,38.75
2023-04-25T10:36:55.237Z,38.62
2023-04-25T10:39:27.006Z,38.66
2023-04-25T10:41:56.221Z,38.53
2023-04-25T10:44:24.432Z,38.37
2023-04-25T10:46:52.452Z,38.54
2023-04-25T10:49:33.169Z,38.53
2023-04-25T10:52:17.076Z,38.11
2023-04-25T10:54:48.164Z,38.34
2023-04-25T10:57:32.776Z,38.34
2023-04-25T11:00:02.225Z,38.18
2023-04-25T11:02:30.545Z,38.34
2023-04-25T11:05:00.025Z,38.51
2023-04-25T11:07:33.360Z,38.25
2023-04-25T11:10:02.795Z,38.05
2023-04-25T11:12:32.167Z,38.32
2023-04-25T11:15:03.939Z,38.21
2023-04-25T11:17:32.187Z,38.55
2023-04-25T11:20:01.688Z,38.34
2023-04-25T11:22:30.968Z,38.36
2023-04-25T11:24:58.990Z,38.02
2023-04-25T11:27:27.059Z,38.08
2023-04-25T11:29:55.327Z,38.12
2023-04-25T11:32:23.780Z,38.43
2023-04-25T11:34:52.975Z,38.52
2023-04-25T11:37:22.300Z,38.43
2023-04-25T11:39:50.424Z,38.54
2023-04-25T11:42:18.436Z,38.61
2023-04-25T11:44:46.547Z,38.57
2023-04-25T11:47:14.510Z,38.17
2023-04-25T11:49:42.561Z,38.44
2023-04-25T11:52:10.765Z,38.17
2023-04-25T11:54:40.237Z,38.30
2023-04-25T11:57:08.291Z,38.45
2023-04-25T11:59:36.373Z,38.49
2023-04-25T12:02:04.456Z,38.04
2023-04-25T12:04:33.122Z,38.08
2023-04-25T12:07:02.729Z,38.21
2023-04-25T12:09:31.483Z,38.30
2023-04-25T12:12:03.983Z,37.97
2023-04-25T12:14:33.387Z,38.06
2023-04-25T12:17:02.568Z,38.22
2023-04-25T12:19:34.638Z,38.02
2023-04-25T12:22:03.874Z,38.29
2023-04-25T12:24:32.302Z,37.82
2023-04-25T12:27:05.257Z,37.97
2023-04-25T12:29:48.681Z,37.73
2023-04-25T12:32:18.044Z,37.91
2023-04-25T12:34:46.249Z,38.08
2023-04-25T12:37:14.227Z,37.67
2023-04-25T12:39:42.210Z,38.09
2023-04-25T12:42:13.096Z,37.79
2023-04-25T12:44:41.772Z,37.85
2023-04-25T12:47:09.804Z,37.86
2023-04-25T12:49:37.910Z,37.70
2023-04-25T12:52:06.044Z,37.81
2023-04-25T12:54:34.049Z,37.84
2023-04-25T12:57:03.999Z,37.64
2023-04-25T12:59:33.550Z,37.51
2023-04-25T13:02:01.537Z,37.55
2023-04-25T13:04:29.668Z,37.85
2023-04-25T13:06:57.883Z,37.75
2023-04-25T13:09:29.001Z,37.40
2023-04-25T13:11:58.409Z,37.49
2023-04-25T13:14:27.292Z,37.14
2023-04-25T13:16:56.747Z,37.15
2023-04-25T13:19:24.712Z,37.40
2023-04-25T13:21:52.736Z,37.14
2023-04-25T13:24:20.965Z,37.13
2023-04-25T13:26:49.059Z,37.10
2023-04-25T13:29:17.205Z,37.05
2023-04-25T13:31:45.311Z,37.17
2023-04-25T13:34:14.775Z,36.87
2023-04-25T13:36:42.730Z,37.18
2023-04-25T13:39:11.149Z,36.79
2023-04-25T13:41:39.180Z,36.90
2023-04-25T13:44:07.224Z,37.09
2023-04-25T13:46:45.413Z,36.85
2023-04-25T13:49:15.580Z,36.57
2023-04-25T13:51:44.386Z,36.58
2023-04-25T13:54:12.385Z,36.77
2023-04-25T13:56:43.439Z,36.66
2023-04-25T13:59:11.766Z,36.64
2023-04-25T14:01:39.865Z,37.02
2023-04-25T14:04:07.966Z,37.01
2023-04-25T14:06:37.804Z,36.94
2023-04-25T14:09:07.711Z,36.75
2023-04-25T14:11:35.732Z,36.68
2023-04-25T14:14:03.695Z,36.46
2023-04-25T14:16:32.733Z,36.67
2023-04-25T14:19:01.545Z,36.66
2023-04-25T14:21:29.686Z,36.76
2023-04-25T14:23:59.030Z,36.26
2023-04-25T14:26:26.943Z,36.48
2023-04-25T14:28:54.871Z,36.20
2023-04-25T14:31:23.273Z,36.04
2023-04-25T14:33:51.799Z,36.22
2023-04-25T14:36:20.100Z,36.00
2023-04-25T14:38:48.338Z,36.36
2023-04-25T14:41:17.695Z,36.39
2023-04-25T14:43:46.172Z,35.95
2023-04-25T14:46:14.220Z,35.87
2023-04-25T14:49:00.611Z,35.54
2023-04-25T14:51:28.779Z,35.71
2023-04-25T14:53:56.896Z,35.27
2023-04-25T14:56:26.489Z,35.26
2023-04-25T14:58:54.607Z,35.57
2023-04-25T15:01:22.877Z,35.34
2023-04-25T15:03:52.420Z,35.66
2023-04-25T15:06:20.716Z,35.68
2023-04-25T15:08:48.764Z,35.73
2023-04-25T15:11:16.756Z,35.46
2023-04-25T15:13:46.152Z,35.57
2023-04-25T15:16:14.211Z,35.45
2023-04-25T15:18:42.345Z,35.15
2023-04-25T15:21:10.299Z,35.13
2023-04-25T15:23:39.118Z,34.83
2023-04-25T15:26:07.152Z,34.58
2023-04-25T15:28:36.032Z,34.92
2023-04-25T15:31:05.535Z,35.15
2023-04-25T15:33:33.508Z,35.10
2023-04-25T15:36:04.350Z,35.28
2023-04-25T15:38:32.569Z,35.16
2023-04-25T15:41:00.524Z,34.55
2023-04-25T15:43:28.501Z,34.89
2023-04-25T15:45:56.782Z,34.94
2023-04-25T15:48:26.468Z,34.69
2023-04-25T15:50:54.468Z,34.79
2023-04-25T15:53:22.477Z,35.03
2023-04-25T15:55:50.520Z,34.81
2023-04-25T15:58:18.624Z,34.88
2023-04-25T16:00:48.947Z,34.87
2023-04-25T16:03:16.974Z,34.56
2023-04-25T16:05:46.482Z,34.91
2023-04-25T16:08:14.437Z,34.87
2023-04-25T16:10:43.075Z,34.89
2023-04-25T16:13:11.373Z,34.41
2023-04-25T16:15:40.031Z,34.54
2023-04-25T16:18:08.414Z,34.91
2023-04-25T16:20:36.510Z,34.63
2023-04-25T16:23:05.949Z,34.63
2023-04-25T16:25:33.940Z,34.51
2023-04-25T16:28:02.035Z,34.89
2023-04-25T16:30:30.077Z,34.51
2023-04-25T16:32:58.229Z,34.55
2023-04-25T16:35:26.379Z,34.75
2023-04-25T16:37:54.365Z,34.68
2023-04-25T16:40:23.975Z,34.92
2023-04-25T16:42:52.050Z,34.68
2023-04-25T16:45:21.691Z,34.95
2023-04-25T16:47:49.838Z,35.01
2023-04-25T16:50:20.215Z,34.52
2023-04-25T16:52:48.203Z,34.81
2023-04-25T16:55:16.087Z,34.51
2023-04-25T16:57:45.570Z,34.92
2023-04-25T17:00:15.068Z,34.68
2023-04-25T17:02:43.310Z,34.78
2023-04-25T17:05:11.981Z,34.74
2023-04-25T17:07:40.045Z,34.93
2023-04-25T17:10:08.898Z,34.95
2023-04-25T17:12:36.825Z,34.57
2023-04-25T17:15:07.375Z,34.91
2023-04-25T17:17:35.388Z,34.58
2023-04-25T17:20:04.309Z,34.58
2023-04-25T17:22:32.436Z,34.55
2023-04-25T17:25:00.366Z,34.52
2023-04-25T17:27:28.322Z,34.65
2023-04-25T17:29:56.397Z,34.70
2023-04-25T17:32:25.814Z,34.49
2023-04-25T17:34:53.964Z,34.92
2023-04-25T17:37:22.585Z,34.91
2023-04-25T17:39:51.183Z,34.90
2023-04-25T17:42:19.225Z,35.00
2023-04-25T17:44:47.576Z,34.83
2023-04-25T17:47:15.539Z,34.90
2023-04-25T17:49:44.883Z,35.10
2023-04-25T17:52:12.949Z,34.69
2023-04-25T17:54:41.015Z,35.11
2023-04-25T17:57:08.984Z,35.14
2023-04-25T17:59:37.071Z,35.00
2023-04-25T18:02:05.165Z,34.96
2023-04-25T18:04:33.272Z,34.98
2023-04-25T18:07:02.652Z,35.05
2023-04-25T18:09:32.475Z,35.08
2023-04-25T18:12:00.438Z,35.23
2023-04-25T18:14:28.450Z,35.07
2023-04-25T18:16:56.478Z,35.16
2023-04-25T18:19:24.494Z,35.12
2023-04-25T18:21:54.524Z,34.76
2023-04-25T18:24:24.531Z,34.98
2023-04-25T18:26:54.363Z,34.86
2023-04-25T18:31:57.341Z,34.82
2023-04-25T18:34:27.427Z,34.74
2023-04-25T18:36:56.530Z,35.12
2023-04-25T18:39:26.288Z,35.15
2023-04-25T18:42:01.670Z,35.01
2023-04-25T18:44:36.651Z,34.75
2023-04-25T18:47:04.791Z,35.00
2023-04-25T18:49:32.986Z,35.05
2023-04-25T18:52:01.039Z,35.03
2023-04-25T18:54:30.444Z,34.79
2023-04-25T18:57:00.957Z,34.97
2023-04-25T18:59:28.922Z,35.04
2023-04-25T19:01:56.883Z,34.95
2023-04-25T19:04:25.039Z,34.79
2023-04-25T19:06:54.216Z,34.93
2023-04-25T19:09:22.207Z,35.10
2023-04-25T19:11:51.649Z,35.27
2023-04-25T19:14:21.002Z,34.87
2023-04-25T19:16:49.047Z,35.14
2023-04-25T19:19:17.001Z,35.06
2023-04-25T19:21:44.981Z,34.95
2023-04-25T19:24:13.060Z,34.83
2023-04-25T19:26:41.079Z,35.05
2023-04-25T19:29:11.404Z,34.77
2023-04-25T19:31:40.323Z,35.15
2023-04-25T19:34:09.285Z,34.72
2023-04-25T19:36:38.489Z,34.98
2023-04-25T19:39:07.490Z,35.13
2023-04-25T19:41:36.817Z,35.11
2023-04-25T19:44:06.790Z,34.88
2023-04-25T19:46:42.729Z,35.19
2023-04-25T19:49:11.375Z,34.84
2023-04-25T19:51:39.428Z,35.25
2023-04-25T19:54:07.494Z,35.16
2023-04-25T19:56:35.824Z,34.93
2023-04-25T19:59:04.004Z,35.04
2023-04-25T20:01:32.043Z,35.32
2023-04-25T20:04:01.655Z,35.16
2023-04-25T20:06:29.583Z,35.29
2023-04-25T20:08:57.517Z,34.99
2023-04-25T20:11:28.607Z,35.03
2023-04-25T20:13:58.852Z,35.08
2023-04-25T20:16:26.930Z,35.24
2023-04-25T20:18:55.417Z,35.19
2023-04-25T20:21:25.036Z,35.39
2023-04-25T20:23:53.071Z,35.43
2023-04-25T20:26:22.762Z,35.52
2023-04-25T20:28:51.403Z,35.26
2023-04-25T20:31:19.756Z,35.29
2023-04-25T20:33:48.182Z,35.59
2023-04-25T20:36:16.786Z,35.73
2023-04-25T20:38:46.082Z,35.43
2023-04-25T20:41:16.044Z,35.43
2023-04-25T20:43:43.999Z,35.41
2023-04-25T20:46:19.073Z,35.29
2023-04-25T20:48:47.162Z,35.70
2023-04-25T20:51:15.561Z,35.49
2023-04-25T20:53:43.520Z,35.73
2023-04-25T20:58:59.198Z,35.71
2023-04-25T21:01:27.873Z,35.86
2023-04-25T21:03:56.083Z,35.82
2023-04-25T21:06:24.264Z,35.99
2023-04-25T21:08:52.729Z,35.58
2023-04-25T21:11:23.443Z,35.74
2023-04-25T21:13:52.366Z,35.63
2023-04-25T21:16:20.401Z,35.95
2023-04-25T21:18:48.383Z,35.67
2023-04-25T21:21:16.328Z,35.69
2023-04-25T21:23:44.302Z,35.77
2023-04-25T21:26:12.287Z,36.03
2023-04-25T21:28:41.612Z,35.77
2023-04-25T21:31:09.639Z,36.02
2023-04-25T21:33:37.865Z,36.04
2023-04-25T21:36:06.219Z,35.66
2023-04-25T21:38:34.798Z,35.92
2023-04-25T21:41:02.742Z,35.94
2023-04-25T21:43:30.735Z,35.95
2023-04-25T21:46:21.569Z,35.62
2023-04-25T21:48:47.959Z,35.75
2023-04-25T21:51:17.038Z,35.90
2023-04-25T21:53:44.928Z,36.08
2023-04-25T21:56:13.201Z,36.08
2023-04-25T21:58:41.092Z,35.87
2023-04-25T22:01:10.730Z,35.70
2023-04-25T22:03:38.823Z,36.04
2023-04-25T22:06:07.075Z,35.92
2023-04-25T22:08:35.053Z,35.74
2023-04-25T22:11:03.104Z,36.04
2023-04-25T22:13:31.317Z,36.16
2023-04-25T22:16:00.036Z,36.04
2023-04-25T22:18:30.421Z,36.10
2023-04-25T22:20:58.390Z,35.97
2023-04-25T22:23:26.710Z,36.22
2023-04-25T22:25:54.597Z,35.96
2023-04-25T22:28:22.788Z,36.08
2023-04-25T22:30:51.103Z,35.87
2023-04-25T22:33:19.078Z,35.93
2023-04-25T22:35:48.478Z,35.81
2023-04-25T22:38:16.836Z,36.14
2023-04-25T22:40:47.922Z,35.85
2023-04-25T22:43:15.966Z,35.98
2023-04-25T22:45:43.978Z,36.29
2023-04-25T22:48:12.002Z,36.31
2023-04-25T22:50:40.931Z,36.09
2023-04-25T22:53:10.534Z,36.08
2023-04-25T22:55:38.516Z,36.24
2023-04-25T22:58:08.614Z,35.98
2023-04-25T23:00:37.636Z,35.94
2023-04-25T23:03:06.269Z,35.97
2023-04-25T23:05:34.424Z,36.20
2023-04-25T23:08:02.526Z,36.14
2023-04-25T23:10:31.910Z,35.97
2023-04-25T23:13:00.967Z,36.08
2023-04-25T23:15:30.980Z,36.09
2023-04-25T23:17:59.117Z,36.21
2023-04-25T23:20:27.196Z,36.27
2023-04-25T23:22:55.609Z,36.05
2023-04-25T23:25:23.488Z,36.14
2023-04-25T23:27:53.090Z,36.25
2023-04-25T23:30:21.229Z,36.08
2023-04-25T23:32:49.169Z,35.96
2023-04-25T23:35:17.108Z,35.93
2023-04-25T23:37:45.062Z,35.92
2023-04-25T23:40:13.535Z,36.14
2023-04-25T23:42:41.986Z,36.05
2023-04-25T23:45:11.715Z,35.86
2023-04-25T23:47:39.736Z,35.94
2023-04-25T23:50:09.072Z,35.77
2023-04-25T23:52:37.894Z,35.94
2023-04-25T23:55:06.732Z,36.13
2023-04-25T23:57:34.787Z,35.84
